sensor_id;sensor_type;location;lat;lon;timestamp;pressure;altitude;pressure_sealevel;temperature;humidity
59825;BME280;45703;50.898;6.054;2023-09-07T00:01:45;100444.09;;;17.65;82.45
59825;BME280;45703;50.898;6.054;2023-09-07T00:04:10;100433.53;;;17.59;82.74
59825;BME280;45703;50.898;6.054;2023-09-07T00:06:39;100440.31;;;17.61;82.95
59825;BME280;45703;50.898;6.054;2023-09-07T00:09:04;100436.22;;;17.59;82.89
59825;BME280;45703;50.898;6.054;2023-09-07T00:11:31;100424.00;;;17.51;82.73
59825;BME280;45703;50.898;6.054;2023-09-07T00:13:56;100427.25;;;17.53;82.80
59825;BME280;45703;50.898;6.054;2023-09-07T00:16:24;100421.59;;;17.50;83.46
59825;BME280;45703;50.898;6.054;2023-09-07T00:18:50;100412.66;;;17.44;83.64
59825;BME280;45703;50.898;6.054;2023-09-07T00:21:15;100420.78;;;17.49;83.35
59825;BME280;45703;50.898;6.054;2023-09-07T00:23:41;100412.41;;;17.46;83.43
59825;BME280;45703;50.898;6.054;2023-09-07T00:26:07;100422.38;;;17.45;83.72
59825;BME280;45703;50.898;6.054;2023-09-07T00:28:32;100409.94;;;17.44;83.71
59825;BME280;45703;50.898;6.054;2023-09-07T00:30:58;100414.28;;;17.45;83.55
59825;BME280;45703;50.898;6.054;2023-09-07T00:33:23;100418.91;;;17.50;83.37
59825;BME280;45703;50.898;6.054;2023-09-07T00:35:49;100398.56;;;17.38;82.98
59825;BME280;45703;50.898;6.054;2023-09-07T00:38:14;100412.66;;;17.49;83.34
59825;BME280;45703;50.898;6.054;2023-09-07T00:40:43;100395.88;;;17.38;83.62
59825;BME280;45703;50.898;6.054;2023-09-07T00:43:10;100401.28;;;17.38;83.51
59825;BME280;45703;50.898;6.054;2023-09-07T00:45:38;100402.91;;;17.39;83.32
59825;BME280;45703;50.898;6.054;2023-09-07T00:48:05;100385.00;;;17.28;83.68
59825;BME280;45703;50.898;6.054;2023-09-07T00:50:30;100395.84;;;17.33;83.67
59825;BME280;45703;50.898;6.054;2023-09-07T00:52:57;100404.75;;;17.33;83.88
59825;BME280;45703;50.898;6.054;2023-09-07T00:55:27;100378.47;;;17.19;83.65
59825;BME280;45703;50.898;6.054;2023-09-07T00:57:55;100409.28;;;17.28;83.77
59825;BME280;45703;50.898;6.054;2023-09-07T01:00:21;100399.53;;;17.22;83.92
59825;BME280;45703;50.898;6.054;2023-09-07T01:02:46;100396.81;;;17.17;83.68
59825;BME280;45703;50.898;6.054;2023-09-07T01:05:14;100392.69;;;17.09;84.26
59825;BME280;45703;50.898;6.054;2023-09-07T01:07:50;100394.00;;;17.07;84.46
59825;BME280;45703;50.898;6.054;2023-09-07T01:10:19;100406.94;;;17.05;84.51
59825;BME280;45703;50.898;6.054;2023-09-07T01:12:46;100394.25;;;17.00;84.45
59825;BME280;45703;50.898;6.054;2023-09-07T01:15:11;100404.72;;;16.97;84.79
59825;BME280;45703;50.898;6.054;2023-09-07T01:17:37;100385.44;;;16.78;84.67
59825;BME280;45703;50.898;6.054;2023-09-07T01:20:07;100376.25;;;16.74;84.65
59825;BME280;45703;50.898;6.054;2023-09-07T01:22:38;100378.09;;;16.69;84.88
59825;BME280;45703;50.898;6.054;2023-09-07T01:25:05;100377.53;;;16.67;84.88
59825;BME280;45703;50.898;6.054;2023-09-07T01:27:32;100383.44;;;16.64;85.17
59825;BME280;45703;50.898;6.054;2023-09-07T01:29:58;100386.44;;;16.67;85.16
59825;BME280;45703;50.898;6.054;2023-09-07T01:32:24;100396.09;;;16.63;85.17
59825;BME280;45703;50.898;6.054;2023-09-07T01:34:53;100390.97;;;16.62;85.43
59825;BME280;45703;50.898;6.054;2023-09-07T01:37:21;100390.44;;;16.60;85.06
59825;BME280;45703;50.898;6.054;2023-09-07T01:39:46;100380.59;;;16.49;85.34
59825;BME280;45703;50.898;6.054;2023-09-07T01:42:13;100381.66;;;16.48;85.12
59825;BME280;45703;50.898;6.054;2023-09-07T01:44:39;100380.31;;;16.45;84.58
59825;BME280;45703;50.898;6.054;2023-09-07T01:47:04;100375.69;;;16.41;85.19
59825;BME280;45703;50.898;6.054;2023-09-07T01:49:30;100377.84;;;16.44;85.62
59825;BME280;45703;50.898;6.054;2023-09-07T01:51:55;100363.72;;;16.32;85.91
59825;BME280;45703;50.898;6.054;2023-09-07T01:54:23;100363.78;;;16.37;86.15
59825;BME280;45703;50.898;6.054;2023-09-07T01:56:49;100368.63;;;16.35;86.39
59825;BME280;45703;50.898;6.054;2023-09-07T01:59:14;100362.09;;;16.31;86.13
59825;BME280;45703;50.898;6.054;2023-09-07T02:01:40;100366.47;;;16.37;86.20
59825;BME280;45703;50.898;6.054;2023-09-07T02:04:05;100356.22;;;16.34;85.47
59825;BME280;45703;50.898;6.054;2023-09-07T02:06:31;100362.22;;;16.41;85.88
59825;BME280;45703;50.898;6.054;2023-09-07T02:08:56;100367.31;;;16.37;85.54
59825;BME280;45703;50.898;6.054;2023-09-07T02:11:22;100382.22;;;16.50;84.59
59825;BME280;45703;50.898;6.054;2023-09-07T02:13:48;100377.09;;;16.48;84.84
59825;BME280;45703;50.898;6.054;2023-09-07T02:16:13;100371.97;;;16.47;84.60
59825;BME280;45703;50.898;6.054;2023-09-07T02:18:44;100371.97;;;16.47;85.02
59825;BME280;45703;50.898;6.054;2023-09-07T02:21:12;100359.81;;;16.44;85.41
59825;BME280;45703;50.898;6.054;2023-09-07T02:23:38;100370.38;;;16.51;84.78
59825;BME280;45703;50.898;6.054;2023-09-07T02:26:11;100372.03;;;16.57;84.99
59825;BME280;45703;50.898;6.054;2023-09-07T02:28:36;100374.75;;;16.57;84.26
59825;BME280;45703;50.898;6.054;2023-09-07T02:31:03;100375.31;;;16.59;84.39
59825;BME280;45703;50.898;6.054;2023-09-07T02:33:28;100378.31;;;16.62;84.09
59825;BME280;45703;50.898;6.054;2023-09-07T02:35:54;100377.44;;;16.57;83.82
59825;BME280;45703;50.898;6.054;2023-09-07T02:38:19;100380.72;;;16.59;84.32
59825;BME280;45703;50.898;6.054;2023-09-07T02:40:45;100385.06;;;16.65;84.36
59825;BME280;45703;50.898;6.054;2023-09-07T02:43:13;100383.44;;;16.64;84.18
59825;BME280;45703;50.898;6.054;2023-09-07T02:45:38;100387.50;;;16.66;83.69
59825;BME280;45703;50.898;6.054;2023-09-07T02:48:05;100392.09;;;16.66;84.42
59825;BME280;45703;50.898;6.054;2023-09-07T02:50:33;100381.56;;;16.64;84.29
59825;BME280;45703;50.898;6.054;2023-09-07T02:52:59;100382.38;;;16.65;83.69
59825;BME280;45703;50.898;6.054;2023-09-07T02:55:26;100388.84;;;16.64;84.09
59825;BME280;45703;50.898;6.054;2023-09-07T02:57:51;100378.25;;;16.57;83.50
59825;BME280;45703;50.898;6.054;2023-09-07T03:00:17;100372.56;;;16.54;83.96
59825;BME280;45703;50.898;6.054;2023-09-07T03:02:43;100382.34;;;16.60;84.25
59825;BME280;45703;50.898;6.054;2023-09-07T03:05:09;100390.66;;;16.58;84.36
59825;BME280;45703;50.898;6.054;2023-09-07T03:07:34;100382.03;;;16.56;84.15
59825;BME280;45703;50.898;6.054;2023-09-07T03:10:00;100377.94;;;16.54;84.67
59825;BME280;45703;50.898;6.054;2023-09-07T03:12:27;100372.47;;;16.44;84.13
59825;BME280;45703;50.898;6.054;2023-09-07T03:14:55;100374.38;;;16.43;83.91
59825;BME280;45703;50.898;6.054;2023-09-07T03:17:20;100362.22;;;16.41;84.14
59825;BME280;45703;50.898;6.054;2023-09-07T03:19:49;100373.00;;;16.41;84.91
59825;BME280;45703;50.898;6.054;2023-09-07T03:22:14;100347.47;;;16.22;84.95
59825;BME280;45703;50.898;6.054;2023-09-07T03:24:40;100364.22;;;16.29;85.25
59825;BME280;45703;50.898;6.054;2023-09-07T03:27:05;100375.00;;;16.29;85.53
59825;BME280;45703;50.898;6.054;2023-09-07T03:29:31;100370.13;;;16.26;85.10
59825;BME280;45703;50.898;6.054;2023-09-07T03:31:59;100360.56;;;16.13;85.43
59825;BME280;45703;50.898;6.054;2023-09-07T03:34:24;100369.47;;;16.14;85.66
59825;BME280;45703;50.898;6.054;2023-09-07T03:36:50;100367.84;;;16.13;85.50
59825;BME280;45703;50.898;6.054;2023-09-07T03:39:15;100348.56;;;15.99;85.63
59825;BME280;45703;50.898;6.054;2023-09-07T03:41:44;100368.28;;;16.05;85.44
59825;BME280;45703;50.898;6.054;2023-09-07T03:44:09;100362.22;;;15.93;85.80
59825;BME280;45703;50.898;6.054;2023-09-07T03:46:35;100371.94;;;15.94;85.92
59825;BME280;45703;50.898;6.054;2023-09-07T03:49:02;100376.50;;;15.93;85.93
59825;BME280;45703;50.898;6.054;2023-09-07T03:51:28;100361.78;;;15.80;86.09
59825;BME280;45703;50.898;6.054;2023-09-07T03:53:53;100369.63;;;15.81;85.97
59825;BME280;45703;50.898;6.054;2023-09-07T03:56:19;100374.19;;;15.81;86.16
59825;BME280;45703;50.898;6.054;2023-09-07T03:58:44;100355.72;;;15.68;86.16
59825;BME280;45703;50.898;6.054;2023-09-07T04:01:12;100352.19;;;15.62;86.58
59825;BME280;45703;50.898;6.054;2023-09-07T04:03:40;100362.94;;;15.62;86.63
59825;BME280;45703;50.898;6.054;2023-09-07T04:06:07;100356.44;;;15.58;86.70
59825;BME280;45703;50.898;6.054;2023-09-07T04:08:32;100370.53;;;15.65;86.79
59825;BME280;45703;50.898;6.054;2023-09-07T04:10:58;100365.09;;;15.60;87.03
59825;BME280;45703;50.898;6.054;2023-09-07T04:13:23;100362.38;;;15.60;86.83
59825;BME280;45703;50.898;6.054;2023-09-07T04:15:49;100370.13;;;15.57;86.49
59825;BME280;45703;50.898;6.054;2023-09-07T04:18:14;100350.28;;;15.41;86.49
59825;BME280;45703;50.898;6.054;2023-09-07T04:20:45;100344.59;;;15.38;86.85
59825;BME280;45703;50.898;6.054;2023-09-07T04:23:13;100346.47;;;15.37;87.28
59825;BME280;45703;50.898;6.054;2023-09-07T04:25:41;100360.53;;;15.44;87.65
59825;BME280;45703;50.898;6.054;2023-09-07T04:28:07;100356.50;;;15.42;87.08
59825;BME280;45703;50.898;6.054;2023-09-07T04:30:37;100353.47;;;15.38;87.22
59825;BME280;45703;50.898;6.054;2023-09-07T04:33:02;100351.78;;;15.32;87.26
59825;BME280;45703;50.898;6.054;2023-09-07T04:35:29;100352.63;;;15.33;87.60
59825;BME280;45703;50.898;6.054;2023-09-07T04:37:59;100345.75;;;15.25;87.20
59825;BME280;45703;50.898;6.054;2023-09-07T04:40:25;100353.34;;;15.28;87.72
59825;BME280;45703;50.898;6.054;2023-09-07T04:42:51;100354.75;;;15.31;87.71
59825;BME280;45703;50.898;6.054;2023-09-07T04:45:16;100367.44;;;15.35;87.47
59825;BME280;45703;50.898;6.054;2023-09-07T04:47:44;100364.75;;;15.35;87.73
59825;BME280;45703;50.898;6.054;2023-09-07T04:50:10;100361.41;;;15.28;87.31
59825;BME280;45703;50.898;6.054;2023-09-07T04:52:36;100362.81;;;15.31;87.45
59825;BME280;45703;50.898;6.054;2023-09-07T04:55:02;100377.06;;;15.31;87.71
59825;BME280;45703;50.898;6.054;2023-09-07T04:57:30;100371.19;;;15.34;87.87
59825;BME280;45703;50.898;6.054;2023-09-07T04:59:55;100376.56;;;15.34;87.80
59825;BME280;45703;50.898;6.054;2023-09-07T05:02:21;100367.59;;;15.29;87.68
59825;BME280;45703;50.898;6.054;2023-09-07T05:04:46;100371.34;;;15.28;87.20
59825;BME280;45703;50.898;6.054;2023-09-07T05:07:14;100379.53;;;15.33;87.38
59825;BME280;45703;50.898;6.054;2023-09-07T05:09:39;100358.88;;;15.22;87.81
59825;BME280;45703;50.898;6.054;2023-09-07T05:12:05;100366.94;;;15.22;88.18
59825;BME280;45703;50.898;6.054;2023-09-07T05:14:41;100368.88;;;15.26;88.14
59825;BME280;45703;50.898;6.054;2023-09-07T05:17:06;100377.28;;;15.30;88.21
59825;BME280;45703;50.898;6.054;2023-09-07T05:19:34;100368.44;;;15.29;87.12
59825;BME280;45703;50.898;6.054;2023-09-07T05:21:59;100364.25;;;15.22;88.54
59825;BME280;45703;50.898;6.054;2023-09-07T05:24:25;100376.50;;;15.29;87.75
59825;BME280;45703;50.898;6.054;2023-09-07T05:26:51;100376.41;;;15.24;87.14
59825;BME280;45703;50.898;6.054;2023-09-07T05:29:16;100383.97;;;15.27;87.73
59825;BME280;45703;50.898;6.054;2023-09-07T05:31:47;100371.50;;;15.21;87.62
59825;BME280;45703;50.898;6.054;2023-09-07T05:34:13;100389.44;;;15.32;87.41
59825;BME280;45703;50.898;6.054;2023-09-07T05:36:38;100374.28;;;15.26;88.04
59825;BME280;45703;50.898;6.054;2023-09-07T05:39:08;100376.41;;;15.24;87.43
59825;BME280;45703;50.898;6.054;2023-09-07T05:41:34;100375.91;;;15.27;88.31
59825;BME280;45703;50.898;6.054;2023-09-07T05:43:59;100380.25;;;15.28;87.35
59825;BME280;45703;50.898;6.054;2023-09-07T05:46:27;100393.53;;;15.35;87.58
59825;BME280;45703;50.898;6.054;2023-09-07T05:48:55;100385.69;;;15.33;88.31
59825;BME280;45703;50.898;6.054;2023-09-07T05:51:23;100395.16;;;15.36;88.53
59825;BME280;45703;50.898;6.054;2023-09-07T05:53:48;100398.22;;;15.44;87.65
59825;BME280;45703;50.898;6.054;2023-09-07T05:56:14;100404.72;;;15.48;87.75
59825;BME280;45703;50.898;6.054;2023-09-07T05:58:39;100411.34;;;15.57;87.86
59825;BME280;45703;50.898;6.054;2023-09-07T06:01:04;100401.59;;;15.56;86.92
59825;BME280;45703;50.898;6.054;2023-09-07T06:03:30;100406.00;;;15.62;87.21
59825;BME280;45703;50.898;6.054;2023-09-07T06:05:57;100417.41;;;15.69;87.80
59825;BME280;45703;50.898;6.054;2023-09-07T06:08:22;100402.75;;;15.60;87.36
59825;BME280;45703;50.898;6.054;2023-09-07T06:10:50;100423.09;;;15.73;87.66
59825;BME280;45703;50.898;6.054;2023-09-07T06:13:16;100421.28;;;15.78;88.19
59825;BME280;45703;50.898;6.054;2023-09-07T06:15:41;100417.84;;;15.83;88.35
59825;BME280;45703;50.898;6.054;2023-09-07T06:18:07;100435.44;;;15.90;88.10
59825;BME280;45703;50.898;6.054;2023-09-07T06:20:32;100429.25;;;15.90;87.78
59825;BME280;45703;50.898;6.054;2023-09-07T06:23:00;100432.84;;;16.00;89.04
59825;BME280;45703;50.898;6.054;2023-09-07T06:25:26;100440.75;;;16.06;87.43
59825;BME280;45703;50.898;6.054;2023-09-07T06:27:52;100432.50;;;16.13;88.39
59825;BME280;45703;50.898;6.054;2023-09-07T06:30:18;100439.56;;;16.19;87.13
59825;BME280;45703;50.898;6.054;2023-09-07T06:32:43;100447.19;;;16.27;86.58
59825;BME280;45703;50.898;6.054;2023-09-07T06:35:09;100438.69;;;16.35;88.98
59825;BME280;45703;50.898;6.054;2023-09-07T06:37:35;100449.31;;;16.46;88.28
59825;BME280;45703;50.898;6.054;2023-09-07T06:40:02;100444.25;;;16.55;86.95
59825;BME280;45703;50.898;6.054;2023-09-07T06:42:29;100457.41;;;16.73;86.33
59825;BME280;45703;50.898;6.054;2023-09-07T06:44:56;100448.28;;;16.79;86.25
59825;BME280;45703;50.898;6.054;2023-09-07T06:47:21;100446.75;;;16.88;86.13
59825;BME280;45703;50.898;6.054;2023-09-07T06:49:47;100442.22;;;16.93;85.99
59825;BME280;45703;50.898;6.054;2023-09-07T06:52:12;100461.25;;;17.13;86.26
59825;BME280;45703;50.898;6.054;2023-09-07T06:54:38;100441.28;;;17.14;85.78
59825;BME280;45703;50.898;6.054;2023-09-07T06:57:06;100457.06;;;17.32;85.36
59825;BME280;45703;50.898;6.054;2023-09-07T06:59:33;100455.28;;;17.42;85.51
59825;BME280;45703;50.898;6.054;2023-09-07T07:01:58;100450.22;;;17.51;85.43
59825;BME280;45703;50.898;6.054;2023-09-07T07:04:25;100445.69;;;17.61;86.35
59825;BME280;45703;50.898;6.054;2023-09-07T07:06:51;100435.44;;;17.63;86.48
59825;BME280;45703;50.898;6.054;2023-09-07T07:09:16;100457.69;;;17.85;85.59
59825;BME280;45703;50.898;6.054;2023-09-07T07:11:42;100459.34;;;17.96;85.91
59825;BME280;45703;50.898;6.054;2023-09-07T07:14:08;100468.56;;;18.05;84.42
59825;BME280;45703;50.898;6.054;2023-09-07T07:16:37;100466.50;;;18.17;84.32
59825;BME280;45703;50.898;6.054;2023-09-07T07:19:02;100451.38;;;18.21;83.56
59825;BME280;45703;50.898;6.054;2023-09-07T07:21:28;100469.53;;;18.36;84.38
59825;BME280;45703;50.898;6.054;2023-09-07T07:23:53;100464.41;;;18.39;81.73
59825;BME280;45703;50.898;6.054;2023-09-07T07:26:19;100463.63;;;18.49;82.61
59825;BME280;45703;50.898;6.054;2023-09-07T07:28:46;100461.75;;;18.54;81.64
59825;BME280;45703;50.898;6.054;2023-09-07T07:31:12;100455.53;;;18.64;81.30
59825;BME280;45703;50.898;6.054;2023-09-07T07:33:40;100462.88;;;18.73;81.22
59825;BME280;45703;50.898;6.054;2023-09-07T07:36:05;100466.13;;;18.85;80.99
59825;BME280;45703;50.898;6.054;2023-09-07T07:38:36;100472.06;;;18.92;81.10
59825;BME280;45703;50.898;6.054;2023-09-07T07:41:02;100486.69;;;19.06;80.63
59825;BME280;45703;50.898;6.054;2023-09-07T07:43:27;100481.81;;;19.13;80.96
59825;BME280;45703;50.898;6.054;2023-09-07T07:45:54;100489.72;;;19.24;80.65
59825;BME280;45703;50.898;6.054;2023-09-07T07:48:19;100483.75;;;19.32;80.27
59825;BME280;45703;50.898;6.054;2023-09-07T07:50:45;100496.47;;;19.42;79.72
59825;BME280;45703;50.898;6.054;2023-09-07T07:53:13;100487.78;;;19.50;79.49
59825;BME280;45703;50.898;6.054;2023-09-07T07:55:46;100494.28;;;19.59;79.80
59825;BME280;45703;50.898;6.054;2023-09-07T07:58:13;100482.91;;;19.57;79.24
59825;BME280;45703;50.898;6.054;2023-09-07T08:00:39;100486.94;;;19.69;78.63
59825;BME280;45703;50.898;6.054;2023-09-07T08:03:12;100489.38;;;19.81;79.07
59825;BME280;45703;50.898;6.054;2023-09-07T08:05:38;100487.16;;;19.93;78.79
59825;BME280;45703;50.898;6.054;2023-09-07T08:08:05;100479.00;;;19.98;78.80
59825;BME280;45703;50.898;6.054;2023-09-07T08:10:33;100475.75;;;20.06;78.25
59825;BME280;45703;50.898;6.054;2023-09-07T08:12:59;100465.97;;;20.10;78.30
59825;BME280;45703;50.898;6.054;2023-09-07T08:15:28;100484.34;;;20.28;78.25
59825;BME280;45703;50.898;6.054;2023-09-07T08:17:54;100487.00;;;20.38;78.26
59825;BME280;45703;50.898;6.054;2023-09-07T08:20:20;100476.13;;;20.42;77.89
59825;BME280;45703;50.898;6.054;2023-09-07T08:22:45;100465.78;;;20.49;77.31
59825;BME280;45703;50.898;6.054;2023-09-07T08:25:12;100465.97;;;20.63;76.49
59825;BME280;45703;50.898;6.054;2023-09-07T08:27:44;100465.09;;;20.72;76.86
59825;BME280;45703;50.898;6.054;2023-09-07T08:30:12;100452.06;;;20.74;76.34
59825;BME280;45703;50.898;6.054;2023-09-07T08:32:38;100462.88;;;20.84;76.33
59825;BME280;45703;50.898;6.054;2023-09-07T08:35:04;100446.25;;;20.91;76.47
59825;BME280;45703;50.898;6.054;2023-09-07T08:37:33;100463.75;;;21.08;76.18
59825;BME280;45703;50.898;6.054;2023-09-07T08:40:00;100442.03;;;21.08;75.53
59825;BME280;45703;50.898;6.054;2023-09-07T08:42:28;100462.78;;;21.28;75.18
59825;BME280;45703;50.898;6.054;2023-09-07T08:44:54;100446.47;;;21.28;74.85
59825;BME280;45703;50.898;6.054;2023-09-07T08:47:24;100457.16;;;21.48;74.33
59825;BME280;45703;50.898;6.054;2023-09-07T08:49:53;100444.38;;;21.48;74.44
59825;BME280;45703;50.898;6.054;2023-09-07T08:52:19;100456.16;;;21.67;74.03
59825;BME280;45703;50.898;6.054;2023-09-07T08:54:48;100461.50;;;21.77;73.74
59825;BME280;45703;50.898;6.054;2023-09-07T08:57:16;100435.69;;;21.75;73.93
59825;BME280;45703;50.898;6.054;2023-09-07T08:59:43;100444.50;;;21.90;73.54
59825;BME280;45703;50.898;6.054;2023-09-07T09:02:10;100440.69;;;21.91;72.53
59825;BME280;45703;50.898;6.054;2023-09-07T09:04:36;100447.84;;;22.05;73.74
59825;BME280;45703;50.898;6.054;2023-09-07T09:07:02;100457.75;;;22.15;73.43
59825;BME280;45703;50.898;6.054;2023-09-07T09:09:29;100441.22;;;22.11;72.39
59825;BME280;45703;50.898;6.054;2023-09-07T09:12:11;100450.59;;;22.24;72.58
59825;BME280;45703;50.898;6.054;2023-09-07T09:14:36;100450.47;;;22.34;73.43
59825;BME280;45703;50.898;6.054;2023-09-07T09:17:02;100438.19;;;22.36;72.38
59825;BME280;45703;50.898;6.054;2023-09-07T09:19:31;100440.50;;;22.48;73.11
59825;BME280;45703;50.898;6.054;2023-09-07T09:22:00;100445.41;;;22.64;73.10
59825;BME280;45703;50.898;6.054;2023-09-07T09:24:25;100445.06;;;22.71;72.25
59825;BME280;45703;50.898;6.054;2023-09-07T09:26:51;100436.00;;;22.75;72.27
59825;BME280;45703;50.898;6.054;2023-09-07T09:29:21;100429.75;;;22.75;71.74
59825;BME280;45703;50.898;6.054;2023-09-07T09:31:48;100443.63;;;22.92;72.00
59825;BME280;45703;50.898;6.054;2023-09-07T09:34:13;100441.34;;;22.99;72.37
59825;BME280;45703;50.898;6.054;2023-09-07T09:36:42;100433.91;;;23.04;72.44
59825;BME280;45703;50.898;6.054;2023-09-07T09:39:07;100430.25;;;23.09;71.84
59825;BME280;45703;50.898;6.054;2023-09-07T09:41:35;100420.63;;;23.16;71.54
59825;BME280;45703;50.898;6.054;2023-09-07T09:44:08;100415.91;;;23.22;71.36
59825;BME280;45703;50.898;6.054;2023-09-07T09:46:35;100418.47;;;23.32;71.31
59825;BME280;45703;50.898;6.054;2023-09-07T09:49:01;100425.34;;;23.43;71.40
59825;BME280;45703;50.898;6.054;2023-09-07T09:51:30;100417.66;;;23.45;70.96
59825;BME280;45703;50.898;6.054;2023-09-07T09:53:57;100408.00;;;23.52;70.40
59825;BME280;45703;50.898;6.054;2023-09-07T09:56:23;100414.03;;;23.62;70.74
59825;BME280;45703;50.898;6.054;2023-09-07T09:58:50;100406.59;;;23.68;69.84
59825;BME280;45703;50.898;6.054;2023-09-07T10:01:18;100413.19;;;23.80;69.34
59825;BME280;45703;50.898;6.054;2023-09-07T10:03:46;100409.84;;;23.83;69.23
59825;BME280;45703;50.898;6.054;2023-09-07T10:06:49;100420.72;;;23.97;69.63
59825;BME280;45703;50.898;6.054;2023-09-07T10:09:14;100392.66;;;23.96;68.95
59825;BME280;45703;50.898;6.054;2023-09-07T10:11:54;100397.91;;;24.06;69.13
59825;BME280;45703;50.898;6.054;2023-09-07T10:14:22;100398.28;;;24.13;69.16
59825;BME280;45703;50.898;6.054;2023-09-07T10:16:52;100404.63;;;24.22;68.61
59825;BME280;45703;50.898;6.054;2023-09-07T10:19:23;100398.47;;;24.30;68.79
59825;BME280;45703;50.898;6.054;2023-09-07T10:21:50;100381.75;;;24.32;69.08
59825;BME280;45703;50.898;6.054;2023-09-07T10:24:30;100402.94;;;24.48;68.64
59825;BME280;45703;50.898;6.054;2023-09-07T10:27:06;100394.19;;;24.51;68.71
59825;BME280;45703;50.898;6.054;2023-09-07T10:29:44;100390.72;;;24.59;69.12
59825;BME280;45703;50.898;6.054;2023-09-07T10:32:10;100384.81;;;24.66;68.61
59825;BME280;45703;50.898;6.054;2023-09-07T10:34:39;100382.03;;;24.79;68.64
59825;BME280;45703;50.898;6.054;2023-09-07T10:37:05;100370.00;;;24.80;67.69
59825;BME280;45703;50.898;6.054;2023-09-07T10:39:32;100369.91;;;24.94;67.88
59825;BME280;45703;50.898;6.054;2023-09-07T10:41:58;100371.28;;;25.04;67.70
59825;BME280;45703;50.898;6.054;2023-09-07T10:44:26;100364.84;;;25.09;67.12
59825;BME280;45703;50.898;6.054;2023-09-07T10:46:53;100362.00;;;25.14;67.32
59825;BME280;45703;50.898;6.054;2023-09-07T10:49:19;100371.56;;;25.25;67.01
59825;BME280;45703;50.898;6.054;2023-09-07T10:51:46;100353.53;;;25.24;66.52
59825;BME280;45703;50.898;6.054;2023-09-07T10:54:22;100365.22;;;25.38;66.93
59825;BME280;45703;50.898;6.054;2023-09-07T10:56:51;100355.88;;;25.39;66.23
59825;BME280;45703;50.898;6.054;2023-09-07T10:59:19;100350.56;;;25.42;66.41
59825;BME280;45703;50.898;6.054;2023-09-07T11:01:52;100347.88;;;25.51;66.63
59825;BME280;45703;50.898;6.054;2023-09-07T11:04:18;100351.63;;;25.63;66.37
59825;BME280;45703;50.898;6.054;2023-09-07T11:06:45;100351.63;;;25.72;66.22
59825;BME280;45703;50.898;6.054;2023-09-07T11:09:13;100344.41;;;25.76;65.63
59825;BME280;45703;50.898;6.054;2023-09-07T11:11:46;100333.88;;;25.83;65.18
59825;BME280;45703;50.898;6.054;2023-09-07T11:14:11;100338.53;;;25.91;65.63
59825;BME280;45703;50.898;6.054;2023-09-07T11:16:37;100349.00;;;26.06;65.10
59825;BME280;45703;50.898;6.054;2023-09-07T11:19:06;100339.84;;;26.10;64.35
59825;BME280;45703;50.898;6.054;2023-09-07T11:21:35;100340.00;;;26.14;65.71
59825;BME280;45703;50.898;6.054;2023-09-07T11:24:01;100332.59;;;26.23;65.42
59825;BME280;45703;50.898;6.054;2023-09-07T11:26:44;100344.88;;;26.34;64.94
59825;BME280;45703;50.898;6.054;2023-09-07T11:29:14;100332.13;;;26.38;64.97
59825;BME280;45703;50.898;6.054;2023-09-07T11:31:40;100332.63;;;26.40;64.25
59825;BME280;45703;50.898;6.054;2023-09-07T11:34:10;100334.56;;;26.48;64.27
59825;BME280;45703;50.898;6.054;2023-09-07T11:36:36;100322.28;;;26.45;64.07
59825;BME280;45703;50.898;6.054;2023-09-07T11:39:04;100326.50;;;26.59;64.19
59825;BME280;45703;50.898;6.054;2023-09-07T11:41:46;100337.13;;;26.69;63.24
59825;BME280;45703;50.898;6.054;2023-09-07T11:44:16;100325.69;;;26.76;63.39
59825;BME280;45703;50.898;6.054;2023-09-07T11:46:41;100322.28;;;26.87;63.88
59825;BME280;45703;50.898;6.054;2023-09-07T11:49:07;100333.34;;;26.99;63.21
59825;BME280;45703;50.898;6.054;2023-09-07T11:51:34;100304.84;;;26.92;62.58
59825;BME280;45703;50.898;6.054;2023-09-07T11:54:01;100312.06;;;27.05;63.06
59825;BME280;45703;50.898;6.054;2023-09-07T11:56:30;100304.31;;;27.07;63.14
59825;BME280;45703;50.898;6.054;2023-09-07T11:59:02;100311.41;;;27.16;62.35
59825;BME280;45703;50.898;6.054;2023-09-07T12:01:30;100308.81;;;27.20;61.47
59825;BME280;45703;50.898;6.054;2023-09-07T12:03:58;100302.81;;;27.26;60.45
59825;BME280;45703;50.898;6.054;2023-09-07T12:06:23;100315.50;;;27.39;61.50
59825;BME280;45703;50.898;6.054;2023-09-07T12:09:08;100308.69;;;27.45;62.62
59825;BME280;45703;50.898;6.054;2023-09-07T12:11:35;100303.03;;;27.50;61.08
59825;BME280;45703;50.898;6.054;2023-09-07T12:14:03;100298.28;;;27.59;62.03
59825;BME280;45703;50.898;6.054;2023-09-07T12:16:31;100306.47;;;27.68;61.74
59825;BME280;45703;50.898;6.054;2023-09-07T12:18:56;100314.19;;;27.74;60.96
59825;BME280;45703;50.898;6.054;2023-09-07T12:21:22;100306.44;;;27.76;61.36
59825;BME280;45703;50.898;6.054;2023-09-07T12:23:47;100314.50;;;27.81;60.47
59825;BME280;45703;50.898;6.054;2023-09-07T12:26:15;100306.75;;;27.83;61.65
59825;BME280;45703;50.898;6.054;2023-09-07T12:28:44;100304.94;;;27.87;59.91
59825;BME280;45703;50.898;6.054;2023-09-07T12:31:10;100305.66;;;27.96;60.71
59825;BME280;45703;50.898;6.054;2023-09-07T12:33:37;100288.25;;;27.92;59.76
59825;BME280;45703;50.898;6.054;2023-09-07T12:36:04;100298.63;;;28.07;58.72
59825;BME280;45703;50.898;6.054;2023-09-07T12:38:34;100292.00;;;28.08;59.88
59825;BME280;45703;50.898;6.054;2023-09-07T12:40:59;100296.41;;;28.21;59.44
59825;BME280;45703;50.898;6.054;2023-09-07T12:43:25;100298.50;;;28.24;57.78
59825;BME280;45703;50.898;6.054;2023-09-07T12:45:50;100288.31;;;28.24;59.43
59825;BME280;45703;50.898;6.054;2023-09-07T12:48:16;100292.75;;;28.37;59.31
59825;BME280;45703;50.898;6.054;2023-09-07T12:50:41;100288.19;;;28.41;58.44